createdAt,value
2023-05-19T00:02:36.000Z,100464.11
2023-05-19T00:07:35.000Z,100465.96
2023-05-19T00:12:36.000Z,100467.05
2023-05-19T00:17:36.000Z,100472.79
2023-05-19T00:22:36.000Z,100472.79
2023-05-19T00:27:36.000Z,100477.32
2023-05-19T00:32:36.000Z,100480.85
2023-05-19T00:37:36.000Z,100483.75
2023-05-19T00:42:36.000Z,100487.3
2023-05-19T00:47:36.000Z,100490.05
2023-05-19T00:52:35.000Z,100493.57
2023-05-19T00:57:36.000Z,100497.32
2023-05-19T01:02:36.000Z,100501.68
2023-05-19T01:07:35.000Z,100508.62
2023-05-19T01:12:36.000Z,100511.24
2023-05-19T01:17:36.000Z,100512.11
2023-05-19T01:22:35.000Z,100513.77
2023-05-19T01:27:36.000Z,100518.4
2023-05-19T01:32:36.000Z,100526.35
2023-05-19T01:37:35.000Z,100526.35
2023-05-19T01:42:36.000Z,100528.98
2023-05-19T01:47:36.000Z,100533.41
2023-05-19T01:52:35.000Z,100533.61
2023-05-19T01:57:37.000Z,100541.52
2023-05-19T02:02:37.000Z,100541.67
2023-05-19T02:07:35.000Z,100542.47
2023-05-19T02:12:36.000Z,100545.96
2023-05-19T02:17:36.000Z,100549.52
2023-05-19T02:22:36.000Z,100550.13
2023-05-19T02:27:36.000Z,100553.03
2023-05-19T02:32:37.000Z,100558.61
2023-05-19T02:37:36.000Z,100562
2023-05-19T02:42:36.000Z,100562
2023-05-19T02:47:36.000Z,100561.96
2023-05-19T02:52:36.000Z,100569.5
2023-05-19T02:57:36.000Z,100583.66
2023-05-19T03:02:36.000Z,100592.1
2023-05-19T03:07:35.000Z,100596.7
2023-05-19T03:12:35.000Z,100602.38
2023-05-19T03:17:36.000Z,100607.28
2023-05-19T03:22:35.000Z,100610.32
2023-05-19T03:27:36.000Z,100612.27
2023-05-19T03:32:36.000Z,100610.19
2023-05-19T03:37:36.000Z,100615.35
2023-05-19T03:42:36.000Z,100619.07
2023-05-19T03:47:35.000Z,100625.26
2023-05-19T03:52:35.000Z,100629.76
2023-05-19T03:57:36.000Z,100629.76
2023-05-19T04:02:36.000Z,100631.99
2023-05-19T04:07:36.000Z,100632.52
2023-05-19T04:12:36.000Z,100636.27
2023-05-19T04:17:36.000Z,100639.83
2023-05-19T04:22:35.000Z,100640.53
2023-05-19T04:27:37.000Z,100642.75
2023-05-19T04:32:36.000Z,100649.97
2023-05-19T04:37:35.000Z,100649.21
2023-05-19T04:42:37.000Z,100649.86
2023-05-19T04:47:35.000Z,100652.54
2023-05-19T04:52:36.000Z,100653.91
2023-05-19T04:57:36.000Z,100657.15
2023-05-19T05:02:36.000Z,100657.31
2023-05-19T05:07:36.000Z,100657.31
2023-05-19T05:12:36.000Z,100658.1
2023-05-19T05:17:36.000Z,100665.42
2023-05-19T05:22:36.000Z,100669.91
2023-05-19T05:27:36.000Z,100673.76
2023-05-19T05:32:36.000Z,100677.65
2023-05-19T05:37:35.000Z,100687.73
2023-05-19T05:42:39.000Z,100686.15
2023-05-19T05:47:36.000Z,100696.68
2023-05-19T05:52:36.000Z,100700.15
2023-05-19T05:57:36.000Z,100701.36
2023-05-19T06:02:36.000Z,100704.77
2023-05-19T06:07:36.000Z,100710.12
2023-05-19T06:12:35.000Z,100710.95
2023-05-19T06:17:35.000Z,100710.95
2023-05-19T06:22:36.000Z,100713.41
2023-05-19T06:27:36.000Z,100715.66
2023-05-19T06:32:36.000Z,100718.47
2023-05-19T06:37:35.000Z,100718.76
2023-05-19T06:42:36.000Z,100721.89
2023-05-19T06:47:35.000Z,100723.78
2023-05-19T06:52:36.000Z,100727.61
2023-05-19T06:57:35.000Z,100729.91
2023-05-19T07:02:36.000Z,100735.22
2023-05-19T07:07:36.000Z,100735.74
2023-05-19T07:12:35.000Z,100736.95
2023-05-19T07:17:36.000Z,100738.14
2023-05-19T07:22:35.000Z,100739.42
2023-05-19T07:27:35.000Z,100739.42
2023-05-19T07:32:36.000Z,100738.09
2023-05-19T07:37:36.000Z,100743.32
2023-05-19T07:42:35.000Z,100741.82
2023-05-19T07:47:36.000Z,100743.32
2023-05-19T07:52:36.000Z,100745.33
2023-05-19T07:57:36.000Z,100748.27
2023-05-19T08:02:35.000Z,100747.24
2023-05-19T08:07:37.000Z,100741.75
2023-05-19T08:12:35.000Z,100740.44
2023-05-19T08:17:35.000Z,100734.42
2023-05-19T08:22:36.000Z,100735.57
2023-05-19T08:27:35.000Z,100735.38
2023-05-19T08:32:37.000Z,100737.15
2023-05-19T08:37:36.000Z,100737.15
2023-05-19T08:42:36.000Z,100736.52
2023-05-19T08:47:36.000Z,100733.16
2023-05-19T08:52:36.000Z,100740.75
2023-05-19T08:57:36.000Z,100736.62
2023-05-19T09:02:35.000Z,100728.58
2023-05-19T09:07:35.000Z,100728.69
2023-05-19T09:12:36.000Z,100727.12
2023-05-19T09:17:35.000Z,100727.69
2023-05-19T09:22:36.000Z,100719.69
2023-05-19T09:27:36.000Z,100723.9
2023-05-19T09:32:36.000Z,100717.19
2023-05-19T09:37:36.000Z,100712.55
2023-05-19T09:42:35.000Z,100709.82
2023-05-19T09:47:36.000Z,100713.74
2023-05-19T09:52:36.000Z,100713.74
2023-05-19T09:57:39.000Z,100709.93
2023-05-19T10:02:36.000Z,100709.75
2023-05-19T10:07:36.000Z,100706.62
2023-05-19T10:12:35.000Z,100706.12
2023-05-19T10:17:36.000Z,100706.93
2023-05-19T10:22:36.000Z,100706.59
2023-05-19T10:27:36.000Z,100700.99
2023-05-19T10:32:37.000Z,100695.26
2023-05-19T10:37:36.000Z,100693.5
2023-05-19T10:42:35.000Z,100692.12
2023-05-19T10:47:36.000Z,100684.96
2023-05-19T10:52:36.000Z,100683.22
2023-05-19T10:57:36.000Z,100688.39
2023-05-19T11:02:36.000Z,100688.39
2023-05-19T11:07:36.000Z,100686.75
2023-05-19T11:12:36.000Z,100678.97
2023-05-19T11:17:36.000Z,100668.85
2023-05-19T11:22:36.000Z,100679.43
2023-05-19T11:27:37.000Z,100679.46
2023-05-19T11:32:36.000Z,100675.68
2023-05-19T11:37:35.000Z,100674.59
2023-05-19T11:42:36.000Z,100669.49
2023-05-19T11:47:36.000Z,100668.78
2023-05-19T11:52:36.000Z,100667.37
2023-05-19T11:57:36.000Z,100668.99
2023-05-19T12:02:36.000Z,100669.51
2023-05-19T12:07:36.000Z,100671.22
2023-05-19T12:12:36.000Z,100673.98
2023-05-19T12:17:35.000Z,100673.98
2023-05-19T12:22:36.000Z,100676.04
2023-05-19T12:27:35.000Z,100677.09
2023-05-19T12:32:36.000Z,100680.88
2023-05-19T12:37:36.000Z,100685.19
2023-05-19T12:42:35.000Z,100693.07
2023-05-19T12:47:35.000Z,100698.15
2023-05-19T12:52:35.000Z,100695.65
2023-05-19T12:57:36.000Z,100698.03
2023-05-19T13:02:36.000Z,100699.1
2023-05-19T13:07:36.000Z,100696.2
2023-05-19T13:12:35.000Z,100704.43
2023-05-19T13:17:36.000Z,100702.26
2023-05-19T13:22:36.000Z,100696.8
2023-05-19T13:27:36.000Z,100698.64
2023-05-19T13:32:35.000Z,100698.64
2023-05-19T13:37:35.000Z,100704.12
2023-05-19T13:42:35.000Z,100701.56
2023-05-19T13:47:35.000Z,100701.99
2023-05-19T13:52:39.000Z,100693.49
2023-05-19T13:57:36.000Z,100689.18
2023-05-19T14:02:36.000Z,100683.86
2023-05-19T14:07:36.000Z,100688.09
2023-05-19T14:12:49.000Z,100695.95
2023-05-19T14:17:36.000Z,100696.25
2023-05-19T14:22:36.000Z,100697.97
2023-05-19T14:27:36.000Z,100698.55
2023-05-19T14:32:39.000Z,100701.61
2023-05-19T14:37:36.000Z,100699.85
2023-05-19T14:42:36.000Z,100699.85
2023-05-19T14:47:37.000Z,100701.18
2023-05-19T14:52:35.000Z,100696.3
2023-05-19T14:57:36.000Z,100696.09
2023-05-19T15:02:39.000Z,100695.98
2023-05-19T15:07:36.000Z,100696.87
2023-05-19T15:12:35.000Z,100696.58
2023-05-19T15:17:36.000Z,100691.13
2023-05-19T15:22:36.000Z,100693.49
2023-05-19T15:27:36.000Z,100694.25
2023-05-19T15:32:36.000Z,100690.87
2023-05-19T15:37:35.000Z,100691.95
2023-05-19T15:42:35.000Z,100696.6
2023-05-19T15:47:36.000Z,100697.03
2023-05-19T15:52:36.000Z,100694.15
2023-05-19T15:57:35.000Z,100694.15
2023-05-19T16:02:36.000Z,100694.33
2023-05-19T16:07:35.000Z,100702.76
2023-05-19T16:12:36.000Z,100708.61
2023-05-19T16:17:36.000Z,100711.87
2023-05-19T16:22:35.000Z,100716.42
2023-05-19T16:27:35.000Z,100715.12
2023-05-19T16:32:36.000Z,100710.78
2023-05-19T16:37:36.000Z,100715.08
2023-05-19T16:42:36.000Z,100718.54
2023-05-19T16:47:36.000Z,100726.2
2023-05-19T16:52:36.000Z,100730.91
2023-05-19T16:57:36.000Z,100735.42
2023-05-19T17:02:35.000Z,100742.25
2023-05-19T17:07:37.000Z,100742.25
2023-05-19T17:12:36.000Z,100743.24
2023-05-19T17:17:35.000Z,100755.84
2023-05-19T17:22:38.000Z,100755.99
2023-05-19T17:27:36.000Z,100765.39
2023-05-19T17:32:36.000Z,100770.84
2023-05-19T17:37:36.000Z,100775.7
2023-05-19T17:42:36.000Z,100780.46
2023-05-19T17:47:36.000Z,100782.54
2023-05-19T17:52:35.000Z,100787.54
2023-05-19T17:57:35.000Z,100794.7
2023-05-19T18:02:36.000Z,100802.09
2023-05-19T18:07:35.000Z,100805.89
2023-05-19T18:12:36.000Z,100810.14
2023-05-19T18:17:36.000Z,100810.14
2023-05-19T18:22:36.000Z,100813.42
2023-05-19T18:27:35.000Z,100816.57
2023-05-19T18:32:36.000Z,100823.14
2023-05-19T18:37:35.000Z,100833.81
2023-05-19T18:42:35.000Z,100834.73
2023-05-19T18:47:35.000Z,100839.26
2023-05-19T18:52:35.000Z,100840.23
2023-05-19T18:57:36.000Z,100845.42
2023-05-19T19:02:36.000Z,100845.04
2023-05-19T19:07:36.000Z,100850.18
2023-05-19T19:12:35.000Z,100848.74
2023-05-19T19:17:36.000Z,100840.62
2023-05-19T19:22:36.000Z,100854.69
2023-05-19T19:27:36.000Z,100854.69
2023-05-19T19:32:36.000Z,100856.47
2023-05-19T19:37:36.000Z,100855.92
2023-05-19T19:42:39.000Z,100861.8
2023-05-19T19:47:36.000Z,100870.61
2023-05-19T19:52:36.000Z,100873.67
2023-05-19T19:57:36.000Z,100875.58
2023-05-19T20:02:36.000Z,100881.14
2023-05-19T20:07:36.000Z,100887.5
2023-05-19T20:12:36.000Z,100895.24
2023-05-19T20:17:36.000Z,100897.05
2023-05-19T20:22:36.000Z,100901.85
2023-05-19T20:27:35.000Z,100908.04
2023-05-19T20:32:36.000Z,100908.04
2023-05-19T20:37:35.000Z,100914.05
2023-05-19T20:42:35.000Z,100914.86
2023-05-19T20:47:39.000Z,100916.81
2023-05-19T20:52:36.000Z,100924.84
2023-05-19T20:57:38.000Z,100930.28
2023-05-19T21:02:35.000Z,100930.22
2023-05-19T21:07:35.000Z,100929
2023-05-19T21:12:36.000Z,100932.39
2023-05-19T21:17:35.000Z,100935.9
2023-05-19T21:22:35.000Z,100934.96
2023-05-19T21:27:36.000Z,100931.48
2023-05-19T21:32:36.000Z,100927.28
2023-05-19T21:37:36.000Z,100924.27
2023-05-19T21:42:35.000Z,100921.47
2023-05-19T21:47:36.000Z,100921.47
2023-05-19T21:52:35.000Z,100922.44
2023-05-19T21:57:35.000Z,100921.46
2023-05-19T22:02:36.000Z,100923.57
2023-05-19T22:07:36.000Z,100925.14
2023-05-19T22:12:35.000Z,100921.76
2023-05-19T22:17:37.000Z,100922.36
2023-05-19T22:22:36.000Z,100918.51
2023-05-19T22:27:36.000Z,100919.74
2023-05-19T22:32:36.000Z,100916.62
2023-05-19T22:37:36.000Z,100916.56
2023-05-19T22:42:35.000Z,100920.73
2023-05-19T22:47:35.000Z,100924.2
2023-05-19T22:52:36.000Z,100923.73
2023-05-19T22:57:35.000Z,100923.73
2023-05-19T23:02:36.000Z,100919.73
2023-05-19T23:07:35.000Z,100914.18
2023-05-19T23:12:36.000Z,100908.86
2023-05-19T23:17:36.000Z,100902.54
2023-05-19T23:22:35.000Z,100899.27
2023-05-19T23:27:36.000Z,100902.53
2023-05-19T23:32:36.000Z,100900.47
2023-05-19T23:37:36.000Z,100897.11
2023-05-19T23:42:35.000Z,100893.64
2023-05-19T23:47:36.000Z,100885.92
2023-05-19T23:52:36.000Z,100881.42
2023-05-19T23:57:36.000Z,100880.51
